^^
Station Historical Data
 
Daily Summary for September 24, 2020 Units:  English    Metric   Both
Daily Weekly Monthly Yearly Custom
  Current: High: Low: Average:
Temperature: 77.5 °F 78.1 °F 59.5 °F 67.1 °F
Dew Point: 40.9 °F 42.2 °F 31.6 °F 35 °F
Humidity: 27% 36.4% 26.2% 31%
Wind Speed: 12.1mph 19.9mph 1.9mph 8.6mph
Wind Gust: 13mph 26mph - -
WindSSE - - West
Pressure: 30.14 in 30.20 in 30.14 in -
Precipitation: 0.00 in      
Historical Graphs
 
 
Tabular Data for September 24, 2020
Time Temperature Dew Point Pressure Wind Wind Speed Wind Gust Humidity Rainfall Rate (Hourly) solar
00:04 66.6 °F 33.4 °F 30.20 in WNW 2.8 mph 4 mph 29.2% 0.00 in 0 W/m2
00:09 66.5 °F 33.8 °F 30.20 in WSW 3.3 mph 3 mph 29.6% 0.00 in 0 W/m2
00:14 66 °F 34.2 °F 30.20 in SSW 3.8 mph 3.6 mph 30.8% 0.00 in 0 W/m2
00:19 65.7 °F 33.5 °F 30.20 in SW 11.1 mph 5.4 mph 30% 0.00 in 0 W/m2
00:24 66.1 °F 32.9 °F 30.20 in WSW 8.3 mph 20 mph 29% 0.00 in 0 W/m2
00:29 66.4 °F 33.6 °F 30.20 in WSW 3.3 mph 7 mph 29.6% 0.00 in 0 W/m2
00:34 66.5 °F 33.2 °F 30.20 in West 4.4 mph 4 mph 29% 0.00 in 0 W/m2
00:39 67.2 °F 33.1 °F 30.20 in WNW 3.9 mph 5 mph 28.2% 0.00 in 0 W/m2
00:44 67.4 °F 34 °F 30.20 in West 3.7 mph 5 mph 29% 0.00 in 0 W/m2
00:49 66.9 °F 34.1 °F 30.20 in West 4.2 mph 5 mph 29.6% 0.00 in 0 W/m2
00:54 66.4 °F 33.9 °F 30.20 in West 5.3 mph 5 mph 30% 0.00 in 0 W/m2
00:59 66.1 °F 33.8 °F 30.19 in West 5.4 mph 6 mph 30% 0.00 in 0 W/m2
01:04 65.9 °F 33.6 °F 30.19 in WNW 5.4 mph 6 mph 30% 0.00 in 0 W/m2
01:09 65.7 °F 33.4 °F 30.19 in WNW 5.8 mph 7 mph 30% 0.00 in 0 W/m2
01:14 65.8 °F 33.5 °F 30.19 in West 4.4 mph 7 mph 30% 0.00 in 0 W/m2
01:19 65.9 °F 32.9 °F 30.19 in West 4.3 mph 5 mph 29.2% 0.00 in 0 W/m2
01:24 66.1 °F 33 °F 30.19 in West 5.8 mph 6 mph 29.2% 0.00 in 0 W/m2
01:29 65.8 °F 33.6 °F 30.19 in WNW 7.4 mph 6 mph 30.2% 0.00 in 0 W/m2
01:34 65.1 °F 33.7 °F 30.19 in West 10.1 mph 11 mph 31% 0.00 in 0 W/m2
01:39 64.8 °F 33.4 °F 30.19 in West 14.3 mph 21 mph 31% 0.00 in 0 W/m2
01:44 64.7 °F 33 °F 30.19 in WNW 13.3 mph 17 mph 30.6% 0.00 in 0 W/m2
01:49 64.4 °F 33.1 °F 30.19 in NW 9.1 mph 15 mph 31% 0.00 in 0 W/m2
01:54 64.2 °F 32.9 °F 30.19 in NW 9.5 mph 9 mph 31% 0.00 in 0 W/m2
01:59 64.3 °F 32.5 °F 30.19 in West 12.3 mph 11 mph 30.4% 0.00 in 0 W/m2
02:04 64.6 °F 33 °F 30.19 in West 16.8 mph 18 mph 30.8% 0.00 in 0 W/m2
02:09 64.7 °F 32.7 °F 30.19 in West 14.9 mph 21 mph 30.2% 0.00 in 0 W/m2
02:14 64.8 °F 32.6 °F 30.19 in West 13.6 mph 15 mph 30% 0.00 in 0 W/m2
02:19 64.9 °F 32.7 °F 30.19 in NW 10.6 mph 15 mph 30% 0.00 in 0 W/m2
02:24 64.9 °F 32.7 °F 30.19 in WNW 14.3 mph 22 mph 30% 0.00 in 0 W/m2
02:29 64.9 °F 32.7 °F 30.19 in WNW 19.5 mph 20 mph 30% 0.00 in 0 W/m2
02:34 65.1 °F 32.9 °F 30.19 in West 13.8 mph 23 mph 30% 0.00 in 0 W/m2
02:39 65 °F 32.9 °F 30.18 in West 17.2 mph 8.5 mph 30.2% 0.00 in 0 W/m2
02:44 64.8 °F 32.8 °F 30.18 in West 13.5 mph 23 mph 30.2% 0.00 in 0 W/m2
02:49 64.8 °F 32.6 °F 30.18 in WNW 18.3 mph 21 mph 30% 0.00 in 0 W/m2
02:54 64.8 °F 32.7 °F 30.18 in West 14.9 mph 23 mph 30.2% 0.00 in 0 W/m2
02:59 64.7 °F 33.3 °F 30.18 in WNW 9.6 mph 17 mph 31% 0.00 in 0 W/m2
03:04 64.8 °F 32.6 °F 30.18 in WNW 9.7 mph 12 mph 30% 0.00 in 0 W/m2
03:09 65.1 °F 32.9 °F 30.18 in WNW 16 mph 12 mph 30% 0.00 in 0 W/m2
03:14 64.9 °F 32.9 °F 30.18 in WNW 10.1 mph 18 mph 30.2% 0.00 in 0 W/m2
03:19 65 °F 32.8 °F 30.17 in NW 9.7 mph 10 mph 30% 0.00 in 0 W/m2
03:24 65.4 °F 32.8 °F 30.17 in NW 17.6 mph 11 mph 29.6% 0.00 in 0 W/m2
03:29 65.8 °F 33 °F 30.17 in WNW 6.5 mph 20 mph 29.4% 0.00 in 0 W/m2
03:34 65.9 °F 33.1 °F 30.17 in West 5.8 mph 8 mph 29.4% 0.00 in 0 W/m2
03:39 65.8 °F 33.3 °F 30.17 in WNW 6.5 mph 6 mph 29.8% 0.00 in 0 W/m2
03:44 65.5 °F 33.2 °F 30.17 in WNW 7.8 mph 8 mph 30% 0.00 in 0 W/m2
03:49 65.3 °F 33.1 °F 30.17 in WNW 14.3 mph 8 mph 30% 0.00 in 0 W/m2
03:54 65.3 °F 33 °F 30.17 in WNW 14.3 mph 17 mph 30% 0.00 in 0 W/m2
03:59 65.1 °F 32.9 °F 30.17 in NW 16.1 mph 25 mph 30% 0.00 in 0 W/m2
04:04 64.8 °F 32.9 °F 30.17 in WNW 19.9 mph 21 mph 30.4% 0.00 in 0 W/m2
04:09 64.4 °F 32.9 °F 30.17 in West 19.3 mph 21 mph 30.8% 0.00 in 0 W/m2
04:14 64.2 °F 33 °F 30.17 in NW 7.2 mph 23 mph 31% 0.00 in 0 W/m2
04:19 63 °F 34 °F 30.17 in NW 6.8 mph 10 mph 33.8% 0.00 in 0 W/m2
04:24 62.1 °F 32.4 °F 30.17 in NW 6.4 mph 10 mph 32.9% 0.00 in 0 W/m2
04:29 62.1 °F 32.1 °F 30.17 in NW 4 mph 12 mph 32.4% 0.00 in 0 W/m2
04:34 62.1 °F 32.6 °F 30.17 in NNW 6.2 mph 8 mph 33% 0.00 in 0 W/m2
04:39 61.3 °F 33.5 °F 30.17 in West 3.5 mph 8 mph 35.1% 0.00 in 0 W/m2
04:44 60 °F 33.2 °F 30.17 in West 4.4 mph 3.4 mph 36.4% 0.00 in 0 W/m2
04:49 59.5 °F 32 °F 30.17 in WNW 7.7 mph 5 mph 35.2% 0.00 in 0 W/m2
04:54 60.2 °F 31.6 °F 30.17 in WNW 3.8 mph 12 mph 33.8% 0.00 in 0 W/m2
04:59 61 °F 31.9 °F 30.17 in NW 5.1 mph 7 mph 33.2% 0.00 in 0 W/m2
05:04 61.6 °F 32.5 °F 30.17 in NW 6.9 mph 8 mph 33.4% 0.00 in 0 W/m2
05:09 61.8 °F 32.8 °F 30.17 in NW 7.2 mph 9 mph 33.6% 0.00 in 0 W/m2
05:14 62.3 °F 32.2 °F 30.17 in WNW 9.5 mph 10 mph 32.2% 0.00 in 0 W/m2
05:19 63.2 °F 32.6 °F 30.17 in NW 6.4 mph 14 mph 31.8% 0.00 in 0 W/m2
05:24 62.9 °F 33.5 °F 30.17 in NW 7.1 mph 10 mph 33.2% 0.00 in 0 W/m2
05:29 62.7 °F 33 °F 30.17 in NNW 4.6 mph 3.8 mph 32.8% 0.00 in 0 W/m2
05:34 62.3 °F 33.1 °F 30.17 in NNW 4.1 mph 5 mph 33.4% 0.00 in 0 W/m2
05:39 61.8 °F 33.3 °F 30.17 in NW 3.5 mph 5 mph 34.2% 0.00 in 0 W/m2
05:44 61.2 °F 33.3 °F 30.17 in WNW 7.3 mph 4 mph 35% 0.00 in 0 W/m2
05:49 60.7 °F 33.1 °F 30.17 in WNW 6.5 mph 14 mph 35.4% 0.00 in 0 W/m2
05:54 60.8 °F 32.2 °F 30.17 in NW 5.2 mph 8 mph 34% 0.00 in 0 W/m2
05:59 61 °F 32.5 °F 30.17 in NW 5.4 mph 2.2 mph 34.2% 0.00 in 0 W/m2
06:04 61 °F 32.8 °F 30.17 in WNW 4.6 mph 5 mph 34.6% 0.00 in 0 W/m2
06:09 61.1 °F 32.6 °F 30.17 in WNW 4 mph 5 mph 34.2% 0.00 in 0 W/m2
06:14 61 °F 32.5 °F 30.17 in NW 5.6 mph 5 mph 34.2% 0.00 in 0 W/m2
06:19 61.5 °F 32.4 °F 30.17 in NW 5.5 mph 8 mph 33.4% 0.00 in 0 W/m2
06:24 62.2 °F 32.7 °F 30.17 in WNW 7.1 mph 6 mph 33% 0.00 in 0 W/m2
06:29 62.8 °F 33.2 °F 30.17 in WNW 8.7 mph 10 mph 33% 0.00 in 0 W/m2
06:34 62.7 °F 33.4 °F 30.17 in West 7.8 mph 10 mph 33.4% 0.00 in 0 W/m2
06:39 63.1 °F 32.7 °F 30.17 in West 10.4 mph 11 mph 32% 0.00 in 1 W/m2
06:44 63.6 °F 33.2 °F 30.17 in WNW 11.2 mph 12 mph 32% 0.00 in 2 W/m2
06:49 63.4 °F 33.8 °F 30.17 in NW 7.1 mph 12 mph 33% 0.00 in 4 W/m2
06:54 63.3 °F 33.7 °F 30.17 in NNW 7 mph 8 mph 33% 0.00 in 7 W/m2
06:59 63.3 °F 33.1 °F 30.17 in NW 7.7 mph 8 mph 32.2% 0.00 in 11 W/m2
07:04 63.5 °F 33.1 °F 30.17 in NW 8.5 mph 9 mph 32% 0.00 in 18 W/m2
07:09 63.8 °F 33.3 °F 30.17 in WNW 9.2 mph 10 mph 32% 0.00 in 24 W/m2
07:14 63.9 °F 33.4 °F 30.17 in WNW 8.8 mph 10 mph 32% 0.00 in 31 W/m2
07:19 64 °F 33.5 °F 30.17 in WNW 9.2 mph 10 mph 32% 0.00 in 39 W/m2
07:24 64.7 °F 33.4 °F 30.17 in West 9.4 mph 9 mph 31% 0.00 in 47 W/m2
07:29 65.3 °F 33.8 °F 30.17 in WSW 9.1 mph 12 mph 31% 0.00 in 54 W/m2
07:34 65.7 °F 34.2 °F 30.17 in West 5.8 mph 13 mph 31% 0.00 in 54 W/m2
07:39 65.7 °F 34.5 °F 30.17 in West 5.8 mph 8 mph 31.4% 0.00 in 53 W/m2
07:44 65.5 °F 34.8 °F 30.17 in WSW 9.7 mph 7 mph 32% 0.00 in 94 W/m2
07:49 65.6 °F 34.6 °F 30.17 in West 13.7 mph 12 mph 31.6% 0.00 in 114 W/m2
07:54 66 °F 34.8 °F 30.17 in WSW 2.8 mph 26 mph 31.4% 0.00 in 128 W/m2
07:59 66.6 °F 36 °F 30.17 in WSW 2.6 mph 3 mph 32.2% 0.00 in 144 W/m2
08:04 67.1 °F 36.4 °F 30.17 in WSW 1.9 mph 3 mph 32.2% 0.00 in 162 W/m2
08:09 67.7 °F 36.1 °F 30.17 in WNW 4.2 mph 3.4 mph 31.2% 0.00 in 177 W/m2
08:14 68.7 °F 36.3 °F 30.17 in WNW 5.6 mph 6 mph 30.4% 0.00 in 194 W/m2
08:19 69.5 °F 36.7 °F 30.17 in West 5.3 mph 6 mph 30% 0.00 in 211 W/m2
08:24 70.3 °F 37.4 °F 30.17 in WSW 4.9 mph 6 mph 30% 0.00 in 228 W/m2
08:29 70.9 °F 38.8 °F 30.17 in WSW 5 mph 6 mph 31.2% 0.00 in 243 W/m2
08:34 71 °F 38.3 °F 30.16 in SW 6.2 mph 8 mph 30.3% 0.00 in 258 W/m2
08:39 71.5 °F 39.1 °F 30.16 in SW 7.1 mph 8 mph 30.8% 0.00 in 268 W/m2
08:44 72 °F 39 °F 30.16 in WSW 4.9 mph 8 mph 30.2% 0.00 in 272 W/m2
08:49 72.2 °F 39 °F 30.16 in SW 6.4 mph 6 mph 30% 0.00 in 273 W/m2
08:54 72.7 °F 38.7 °F 30.16 in SW 5.9 mph 9 mph 29.2% 0.00 in 272 W/m2
08:59 72.9 °F 39.1 °F 30.16 in SW 11.5 mph 11 mph 29.4% 0.00 in 276 W/m2
09:04 73.4 °F 38.6 °F 30.16 in WSW 7.7 mph 14 mph 28.4% 0.00 in 297 W/m2
09:09 74 °F 39.5 °F 30.16 in SW 7.2 mph 9 mph 28.8% 0.00 in 332 W/m2
09:14 74.8 °F 40 °F 30.16 in SSW 6.5 mph 3.8 mph 28.6% 0.00 in 376 W/m2
09:19 76.1 °F 41.1 °F 30.16 in South 4 mph 7 mph 28.6% 0.00 in 418 W/m2
09:24 76.7 °F 40.6 °F 30.16 in South 8.7 mph 7 mph 27.4% 0.00 in 453 W/m2
09:29 76.1 °F 40.6 °F 30.16 in South 8.8 mph 9 mph 28% 0.00 in 470 W/m2
09:34 75.7 °F 40.1 °F 30.16 in SSE 11.7 mph 12 mph 27.8% 0.00 in 470 W/m2
09:39 75.4 °F 40 °F 30.16 in South 9.5 mph 13 mph 28% 0.00 in 526 W/m2
09:44 75.4 °F 40.5 °F 30.16 in SSE 9.2 mph 10 mph 28.6% 0.00 in 547 W/m2
09:49 75.6 °F 41.1 °F 30.16 in South 9.7 mph 10 mph 29% 0.00 in 574 W/m2
09:54 75.6 °F 41.6 °F 30.16 in SSE 8.6 mph 11 mph 29.6% 0.00 in 594 W/m2
09:59 76 °F 41.4 °F 30.16 in South 9.3 mph 9 mph 29% 0.00 in 621 W/m2
10:04 76.2 °F 40.7 °F 30.16 in SSE 8 mph 10 mph 28% 0.00 in 650 W/m2
10:09 77 °F 41.2 °F 30.16 in South 7.8 mph 9 mph 27.8% 0.00 in 675 W/m2
10:14 77.4 °F 41.2 °F 30.15 in SSE 8.2 mph 10 mph 27.4% 0.00 in 684 W/m2
10:19 77.5 °F 41.7 °F 30.15 in SSE 9.8 mph 10 mph 27.8% 0.00 in 702 W/m2
10:24 77.5 °F 42.2 °F 30.15 in SSE 11.6 mph 12 mph 28.4% 0.00 in 717 W/m2
10:29 77.5 °F 41.6 °F 30.15 in SSE 11.4 mph 13 mph 27.8% 0.00 in 746 W/m2
10:34 77.6 °F 40.8 °F 30.15 in SE 12.4 mph 13 mph 26.8% 0.00 in 856 W/m2
10:39 77.9 °F 40.4 °F 30.15 in SSE 14 mph 14 mph 26.2% 0.00 in 936 W/m2
10:44 78 °F 40.9 °F 30.15 in SSE 13 mph 15 mph 26.6% 0.00 in 857 W/m2
10:49 78.1 °F 41.4 °F 30.15 in SSE 13.7 mph 14 mph 27% 0.00 in 701 W/m2
10:54 78.1 °F 41.4 °F 30.15 in SSE 11.5 mph 9.6 mph 27% 0.00 in 649 W/m2
10:59 77.8 °F 41 °F 30.14 in SSE 12.2 mph 13 mph 26.8% 0.00 in 576 W/m2
11:04 77.5 °F 40.9 °F 30.14 in SSE 12.1 mph 13 mph 27% 0.00 in 390 W/m2
Rockcreek-Hillcrest Superior, Colorado, USA
Compliments of Weather Underground - 2 mb